sensor_id;sensor_type;location;lat;lon;timestamp;pressure;altitude;pressure_sealevel;temperature;humidity
72548;BME280;60570;50.848;6.776;2024-02-14T00:00:44;100577.31;;;9.79;72.36
72548;BME280;60570;50.848;6.776;2024-02-14T00:01:46;100580.75;;;9.76;72.27
72548;BME280;60570;50.848;6.776;2024-02-14T00:02:47;100574.53;;;9.79;72.47
72548;BME280;60570;50.848;6.776;2024-02-14T00:03:50;100573.06;;;9.82;72.05
72548;BME280;60570;50.848;6.776;2024-02-14T00:04:51;100583.19;;;9.78;72.24
72548;BME280;60570;50.848;6.776;2024-02-14T00:05:52;100581.25;;;9.78;72.12
72548;BME280;60570;50.848;6.776;2024-02-14T00:06:54;100582.38;;;9.77;72.26
72548;BME280;60570;50.848;6.776;2024-02-14T00:07:55;100583.19;;;9.78;71.93
72548;BME280;60570;50.848;6.776;2024-02-14T00:09:01;100585.81;;;9.74;72.54
72548;BME280;60570;50.848;6.776;2024-02-14T00:10:03;100590.53;;;9.82;72.25
72548;BME280;60570;50.848;6.776;2024-02-14T00:11:06;100582.53;;;9.89;72.22
72548;BME280;60570;50.848;6.776;2024-02-14T00:12:10;100585.63;;;9.88;72.21
72548;BME280;60570;50.848;6.776;2024-02-14T00:13:12;100584.81;;;9.87;72.10
72548;BME280;60570;50.848;6.776;2024-02-14T00:14:13;100583.69;;;9.88;71.85
72548;BME280;60570;50.848;6.776;2024-02-14T00:15:15;100588.41;;;9.97;71.78
72548;BME280;60570;50.848;6.776;2024-02-14T00:16:16;100582.69;;;9.93;71.76
72548;BME280;60570;50.848;6.776;2024-02-14T00:17:18;100577.81;;;9.90;71.91
72548;BME280;60570;50.848;6.776;2024-02-14T00:18:19;100579.28;;;9.87;72.13
72548;BME280;60570;50.848;6.776;2024-02-14T00:19:21;100584.66;;;9.84;72.10
72548;BME280;60570;50.848;6.776;2024-02-14T00:20:22;100582.22;;;9.82;72.25
72548;BME280;60570;50.848;6.776;2024-02-14T00:21:23;100585.81;;;9.83;72.15
72548;BME280;60570;50.848;6.776;2024-02-14T00:22:25;100584.66;;;9.84;72.28
72548;BME280;60570;50.848;6.776;2024-02-14T00:23:26;100580.91;;;9.88;72.19
72548;BME280;60570;50.848;6.776;2024-02-14T00:24:29;100579.41;;;9.91;72.00
72548;BME280;60570;50.848;6.776;2024-02-14T00:25:31;100585.44;;;9.93;72.26
72548;BME280;60570;50.848;6.776;2024-02-14T00:26:32;100579.41;;;9.91;71.85
72548;BME280;60570;50.848;6.776;2024-02-14T00:27:35;100574.53;;;9.88;72.16
72548;BME280;60570;50.848;6.776;2024-02-14T00:28:35;100570.59;;;9.89;72.11
72548;BME280;60570;50.848;6.776;2024-02-14T00:29:38;100569.81;;;9.88;71.91
72548;BME280;60570;50.848;6.776;2024-02-14T00:30:38;100577.16;;;9.84;72.25
72548;BME280;60570;50.848;6.776;2024-02-14T00:31:40;100575.38;;;9.88;72.25
72548;BME280;60570;50.848;6.776;2024-02-14T00:32:43;100568.84;;;9.84;72.22
72548;BME280;60570;50.848;6.776;2024-02-14T00:33:48;100575.53;;;9.83;72.34
72548;BME280;60570;50.848;6.776;2024-02-14T00:34:49;100571.13;;;9.82;72.46
72548;BME280;60570;50.848;6.776;2024-02-14T00:35:51;100577.00;;;9.81;72.44
72548;BME280;60570;50.848;6.776;2024-02-14T00:36:52;100564.25;;;9.88;72.37
72548;BME280;60570;50.848;6.776;2024-02-14T00:37:54;100563.09;;;9.89;72.17
72548;BME280;60570;50.848;6.776;2024-02-14T00:38:55;100568.84;;;9.84;72.22
72548;BME280;60570;50.848;6.776;2024-02-14T00:39:59;100568.69;;;9.81;72.28
72548;BME280;60570;50.848;6.776;2024-02-14T00:41:02;100573.41;;;9.80;72.41
72548;BME280;60570;50.848;6.776;2024-02-14T00:42:04;100572.94;;;9.78;72.31
72548;BME280;60570;50.848;6.776;2024-02-14T00:43:06;100570.50;;;9.77;72.68
72548;BME280;60570;50.848;6.776;2024-02-14T00:44:07;100564.28;;;9.80;72.78
72548;BME280;60570;50.848;6.776;2024-02-14T00:45:09;100559.53;;;9.80;72.63
72548;BME280;60570;50.848;6.776;2024-02-14T00:46:15;100563.94;;;9.90;72.60
72548;BME280;60570;50.848;6.776;2024-02-14T00:47:17;100566.38;;;9.91;72.40
72548;BME280;60570;50.848;6.776;2024-02-14T00:48:18;100569.81;;;9.88;72.23
72548;BME280;60570;50.848;6.776;2024-02-14T00:49:19;100563.28;;;9.84;72.41
72548;BME280;60570;50.848;6.776;2024-02-14T00:50:20;100566.56;;;9.86;72.17
72548;BME280;60570;50.848;6.776;2024-02-14T00:51:22;100566.38;;;9.91;72.26
72548;BME280;60570;50.848;6.776;2024-02-14T00:52:23;100565.25;;;9.92;72.14
72548;BME280;60570;50.848;6.776;2024-02-14T00:53:24;100560.66;;;9.88;72.25
72548;BME280;60570;50.848;6.776;2024-02-14T00:54:25;100562.13;;;9.85;72.32
72548;BME280;60570;50.848;6.776;2024-02-14T00:55:28;100560.66;;;9.79;72.74
72548;BME280;60570;50.848;6.776;2024-02-14T00:56:28;100559.34;;;9.85;72.55
72548;BME280;60570;50.848;6.776;2024-02-14T00:57:29;100552.84;;;9.81;72.75
72548;BME280;60570;50.848;6.776;2024-02-14T00:58:31;100557.56;;;9.89;72.60
72548;BME280;60570;50.848;6.776;2024-02-14T00:59:32;100556.38;;;9.99;72.16
72548;BME280;60570;50.848;6.776;2024-02-14T01:00:32;100549.38;;;10.02;72.27
72548;BME280;60570;50.848;6.776;2024-02-14T01:01:34;100553.75;;;10.03;71.95
72548;BME280;60570;50.848;6.776;2024-02-14T01:02:35;100555.59;;;9.99;72.21
72548;BME280;60570;50.848;6.776;2024-02-14T01:03:36;100546.41;;;10.07;72.00
72548;BME280;60570;50.848;6.776;2024-02-14T01:04:37;100557.19;;;10.08;71.78
72548;BME280;60570;50.848;6.776;2024-02-14T01:05:39;100551.00;;;10.03;71.64
72548;BME280;60570;50.848;6.776;2024-02-14T01:06:40;100545.13;;;10.04;71.95
72548;BME280;60570;50.848;6.776;2024-02-14T01:07:40;100544.31;;;10.12;71.75
72548;BME280;60570;50.848;6.776;2024-02-14T01:08:42;100541.22;;;10.14;71.38
72548;BME280;60570;50.848;6.776;2024-02-14T01:09:43;100546.41;;;10.15;71.27
72548;BME280;60570;50.848;6.776;2024-02-14T01:10:46;100544.13;;;10.17;71.56
72548;BME280;60570;50.848;6.776;2024-02-14T01:11:47;100543.44;;;10.20;71.60
72548;BME280;60570;50.848;6.776;2024-02-14T01:12:49;100549.97;;;10.24;71.31
72548;BME280;60570;50.848;6.776;2024-02-14T01:13:50;100543.78;;;10.27;71.00
72548;BME280;60570;50.848;6.776;2024-02-14T01:14:52;100537.75;;;10.25;71.09
72548;BME280;60570;50.848;6.776;2024-02-14T01:15:52;100530.22;;;10.26;71.21
72548;BME280;60570;50.848;6.776;2024-02-14T01:16:54;100540.19;;;10.27;71.26
72548;BME280;60570;50.848;6.776;2024-02-14T01:17:55;100541.97;;;10.23;71.42
72548;BME280;60570;50.848;6.776;2024-02-14T01:18:56;100529.91;;;10.19;71.51
72548;BME280;60570;50.848;6.776;2024-02-14T01:19:57;100542.47;;;10.16;71.56
72548;BME280;60570;50.848;6.776;2024-02-14T01:20:59;100541.22;;;10.14;71.61
72548;BME280;60570;50.848;6.776;2024-02-14T01:22:01;100536.00;;;10.12;71.56
72548;BME280;60570;50.848;6.776;2024-02-14T01:23:01;100532.53;;;10.07;71.96
72548;BME280;60570;50.848;6.776;2024-02-14T01:24:04;100526.19;;;9.98;72.15
72548;BME280;60570;50.848;6.776;2024-02-14T01:25:05;100524.41;;;9.93;72.26
72548;BME280;60570;50.848;6.776;2024-02-14T01:26:09;100526.69;;;9.91;72.46
72548;BME280;60570;50.848;6.776;2024-02-14T01:27:09;100530.13;;;9.97;72.29
72548;BME280;60570;50.848;6.776;2024-02-14T01:28:11;100529.75;;;10.07;72.25
72548;BME280;60570;50.848;6.776;2024-02-14T01:29:11;100530.25;;;10.09;71.83
72548;BME280;60570;50.848;6.776;2024-02-14T01:30:13;100526.66;;;10.08;71.85
72548;BME280;60570;50.848;6.776;2024-02-14T01:31:16;100522.44;;;10.11;71.72
72548;BME280;60570;50.848;6.776;2024-02-14T01:32:18;100524.91;;;10.12;71.97
72548;BME280;60570;50.848;6.776;2024-02-14T01:33:18;100523.91;;;10.08;71.90
72548;BME280;60570;50.848;6.776;2024-02-14T01:34:19;100524.91;;;10.12;71.98
72548;BME280;60570;50.848;6.776;2024-02-14T01:35:21;100531.06;;;10.09;72.02
72548;BME280;60570;50.848;6.776;2024-02-14T01:36:22;100530.44;;;10.12;71.93
72548;BME280;60570;50.848;6.776;2024-02-14T01:37:23;100534.69;;;10.10;71.92
72548;BME280;60570;50.848;6.776;2024-02-14T01:38:24;100534.69;;;10.10;72.09
72548;BME280;60570;50.848;6.776;2024-02-14T01:39:26;100537.41;;;10.18;71.79
72548;BME280;60570;50.848;6.776;2024-02-14T01:40:26;100537.75;;;10.17;71.72
72548;BME280;60570;50.848;6.776;2024-02-14T01:41:30;100534.66;;;10.18;71.78
72548;BME280;60570;50.848;6.776;2024-02-14T01:42:30;100546.09;;;10.17;71.68
72548;BME280;60570;50.848;6.776;2024-02-14T01:43:32;100540.19;;;10.18;71.60
72548;BME280;60570;50.848;6.776;2024-02-14T01:44:33;100545.94;;;10.13;71.98
72548;BME280;60570;50.848;6.776;2024-02-14T01:45:37;100536.63;;;10.18;71.75
72548;BME280;60570;50.848;6.776;2024-02-14T01:46:38;100541.16;;;10.22;71.65
72548;BME280;60570;50.848;6.776;2024-02-14T01:47:39;100544.63;;;10.19;71.74
72548;BME280;60570;50.848;6.776;2024-02-14T01:48:41;100547.06;;;10.21;71.60
72548;BME280;60570;50.848;6.776;2024-02-14T01:49:44;100540.72;;;10.12;71.80
72548;BME280;60570;50.848;6.776;2024-02-14T01:50:45;100531.25;;;10.04;72.12
72548;BME280;60570;50.848;6.776;2024-02-14T01:51:47;100532.72;;;10.02;72.35
72548;BME280;60570;50.848;6.776;2024-02-14T01:52:48;100547.09;;;10.04;72.35
72548;BME280;60570;50.848;6.776;2024-02-14T01:53:51;100535.97;;;10.04;72.44
72548;BME280;60570;50.848;6.776;2024-02-14T01:54:53;100531.75;;;10.06;72.29
72548;BME280;60570;50.848;6.776;2024-02-14T01:55:56;100529.13;;;10.10;72.15
72548;BME280;60570;50.848;6.776;2024-02-14T01:57:00;100531.06;;;10.09;72.28
72548;BME280;60570;50.848;6.776;2024-02-14T01:58:03;100523.41;;;10.06;72.30
72548;BME280;60570;50.848;6.776;2024-02-14T01:59:05;100527.47;;;10.09;72.17
72548;BME280;60570;50.848;6.776;2024-02-14T02:00:07;100528.94;;;10.15;72.13
72548;BME280;60570;50.848;6.776;2024-02-14T02:01:09;100524.53;;;10.05;72.09
72548;BME280;60570;50.848;6.776;2024-02-14T02:02:10;100526.34;;;10.01;72.37
72548;BME280;60570;50.848;6.776;2024-02-14T02:03:13;100529.81;;;9.98;72.54
72548;BME280;60570;50.848;6.776;2024-02-14T02:04:15;100523.72;;;10.05;72.65
72548;BME280;60570;50.848;6.776;2024-02-14T02:05:16;100525.19;;;10.11;72.23
72548;BME280;60570;50.848;6.776;2024-02-14T02:06:19;100532.88;;;10.14;72.03
72548;BME280;60570;50.848;6.776;2024-02-14T02:07:20;100526.66;;;10.17;72.12
72548;BME280;60570;50.848;6.776;2024-02-14T02:08:22;100524.38;;;10.19;72.03
72548;BME280;60570;50.848;6.776;2024-02-14T02:09:22;100530.06;;;10.22;71.83
72548;BME280;60570;50.848;6.776;2024-02-14T02:10:24;100519.28;;;10.21;71.75
72548;BME280;60570;50.848;6.776;2024-02-14T02:11:26;100525.53;;;10.18;72.14
72548;BME280;60570;50.848;6.776;2024-02-14T02:12:29;100523.84;;;10.25;71.65
72548;BME280;60570;50.848;6.776;2024-02-14T02:13:30;100525.31;;;10.23;71.58
72548;BME280;60570;50.848;6.776;2024-02-14T02:14:32;100521.72;;;10.22;71.72
72548;BME280;60570;50.848;6.776;2024-02-14T02:15:33;100527.13;;;10.27;71.92
72548;BME280;60570;50.848;6.776;2024-02-14T02:16:37;100523.50;;;10.27;71.90
72548;BME280;60570;50.848;6.776;2024-02-14T02:17:38;100525.16;;;10.28;72.02
72548;BME280;60570;50.848;6.776;2024-02-14T02:18:40;100518.31;;;10.25;71.80
72548;BME280;60570;50.848;6.776;2024-02-14T02:19:41;100518.31;;;10.17;71.94
72548;BME280;60570;50.848;6.776;2024-02-14T02:20:42;100519.81;;;10.06;72.34
72548;BME280;60570;50.848;6.776;2024-02-14T02:21:44;100514.91;;;10.03;72.60
72548;BME280;60570;50.848;6.776;2024-02-14T02:22:48;100516.41;;;10.00;72.83
72548;BME280;60570;50.848;6.776;2024-02-14T02:23:49;100520.47;;;10.03;72.53
72548;BME280;60570;50.848;6.776;2024-02-14T02:24:50;100514.75;;;10.08;72.55
72548;BME280;60570;50.848;6.776;2024-02-14T02:25:52;100512.63;;;10.13;72.38
72548;BME280;60570;50.848;6.776;2024-02-14T02:26:53;100513.25;;;10.19;72.23
72548;BME280;60570;50.848;6.776;2024-02-14T02:27:55;100507.53;;;10.24;72.06
72548;BME280;60570;50.848;6.776;2024-02-14T02:28:57;100520.47;;;10.20;72.14
72548;BME280;60570;50.848;6.776;2024-02-14T02:29:57;100520.13;;;10.13;72.24
72548;BME280;60570;50.848;6.776;2024-02-14T02:31:01;100524.53;;;10.05;72.83
72548;BME280;60570;50.848;6.776;2024-02-14T02:32:02;100525.84;;;10.08;72.44
72548;BME280;60570;50.848;6.776;2024-02-14T02:33:05;100518.50;;;10.03;72.59
72548;BME280;60570;50.848;6.776;2024-02-14T02:34:07;100520.28;;;10.08;72.87
72548;BME280;60570;50.848;6.776;2024-02-14T02:35:11;100518.84;;;10.02;73.00
72548;BME280;60570;50.848;6.776;2024-02-14T02:36:12;100525.56;;;10.01;72.88
72548;BME280;60570;50.848;6.776;2024-02-14T02:37:13;100525.69;;;10.04;73.02
72548;BME280;60570;50.848;6.776;2024-02-14T02:38:18;100516.88;;;10.11;72.74
72548;BME280;60570;50.848;6.776;2024-02-14T02:39:20;100518.16;;;10.05;72.78
72548;BME280;60570;50.848;6.776;2024-02-14T02:40:22;100524.69;;;10.09;72.80
72548;BME280;60570;50.848;6.776;2024-02-14T02:41:22;100534.34;;;10.11;72.80
72548;BME280;60570;50.848;6.776;2024-02-14T02:42:24;100529.13;;;10.10;72.60
72548;BME280;60570;50.848;6.776;2024-02-14T02:43:25;100535.19;;;10.12;72.65
72548;BME280;60570;50.848;6.776;2024-02-14T02:44:27;100537.75;;;10.17;72.37
72548;BME280;60570;50.848;6.776;2024-02-14T02:45:27;100539.56;;;10.13;72.59
72548;BME280;60570;50.848;6.776;2024-02-14T02:46:29;100538.91;;;10.16;72.70
72548;BME280;60570;50.848;6.776;2024-02-14T02:47:30;100546.41;;;10.15;72.66
72548;BME280;60570;50.848;6.776;2024-02-14T02:48:31;100542.81;;;10.15;72.58
72548;BME280;60570;50.848;6.776;2024-02-14T02:49:32;100547.25;;;10.16;72.63
72548;BME280;60570;50.848;6.776;2024-02-14T02:50:34;100554.72;;;10.24;72.42
72548;BME280;60570;50.848;6.776;2024-02-14T02:51:34;100562.88;;;10.20;72.43
72548;BME280;60570;50.848;6.776;2024-02-14T02:52:36;100559.97;;;10.17;72.35
72548;BME280;60570;50.848;6.776;2024-02-14T02:53:39;100555.72;;;10.19;72.43
72548;BME280;60570;50.848;6.776;2024-02-14T02:54:41;100554.91;;;10.19;72.72
72548;BME280;60570;50.848;6.776;2024-02-14T02:55:44;100558.16;;;10.21;72.43
72548;BME280;60570;50.848;6.776;2024-02-14T02:56:46;100561.59;;;10.18;72.65
72548;BME280;60570;50.848;6.776;2024-02-14T02:57:46;100556.38;;;10.16;72.86
72548;BME280;60570;50.848;6.776;2024-02-14T02:58:47;100558.34;;;10.16;72.59
72548;BME280;60570;50.848;6.776;2024-02-14T02:59:49;100551.78;;;10.20;72.77
72548;BME280;60570;50.848;6.776;2024-02-14T03:00:50;100554.06;;;10.18;72.63
72548;BME280;60570;50.848;6.776;2024-02-14T03:01:51;100548.53;;;10.18;72.65
72548;BME280;60570;50.848;6.776;2024-02-14T03:02:52;100549.34;;;10.19;72.65
72548;BME280;60570;50.848;6.776;2024-02-14T03:03:53;100550.31;;;10.23;72.68
72548;BME280;60570;50.848;6.776;2024-02-14T03:04:55;100561.28;;;10.19;72.53
72548;BME280;60570;50.848;6.776;2024-02-14T03:05:55;100556.69;;;10.23;72.51
72548;BME280;60570;50.848;6.776;2024-02-14T03:06:57;100551.47;;;10.22;72.53
72548;BME280;60570;50.848;6.776;2024-02-14T03:07:59;100558.84;;;10.18;72.65
72548;BME280;60570;50.848;6.776;2024-02-14T03:09:03;100558.69;;;10.14;72.46
72548;BME280;60570;50.848;6.776;2024-02-14T03:10:04;100547.25;;;10.16;72.40
72548;BME280;60570;50.848;6.776;2024-02-14T03:11:07;100560.78;;;10.17;72.93
72548;BME280;60570;50.848;6.776;2024-02-14T03:12:09;100555.09;;;10.14;72.87
72548;BME280;60570;50.848;6.776;2024-02-14T03:13:11;100551.66;;;10.08;73.13
72548;BME280;60570;50.848;6.776;2024-02-14T03:14:12;100557.03;;;10.13;72.85
72548;BME280;60570;50.848;6.776;2024-02-14T03:15:14;100551.34;;;10.10;72.88
72548;BME280;60570;50.848;6.776;2024-02-14T03:16:15;100558.00;;;10.09;73.10
72548;BME280;60570;50.848;6.776;2024-02-14T03:17:17;100561.78;;;10.13;73.32
72548;BME280;60570;50.848;6.776;2024-02-14T03:18:18;100559.63;;;10.18;73.02
72548;BME280;60570;50.848;6.776;2024-02-14T03:19:20;100558.34;;;10.16;72.73
72548;BME280;60570;50.848;6.776;2024-02-14T03:20:22;100545.25;;;10.16;72.96
72548;BME280;60570;50.848;6.776;2024-02-14T03:21:24;100549.53;;;10.14;72.90
72548;BME280;60570;50.848;6.776;2024-02-14T03:22:25;100534.81;;;10.05;73.16
72548;BME280;60570;50.848;6.776;2024-02-14T03:23:26;100547.56;;;10.06;73.03
72548;BME280;60570;50.848;6.776;2024-02-14T03:24:29;100541.84;;;10.11;73.27
72548;BME280;60570;50.848;6.776;2024-02-14T03:25:31;100550.66;;;10.13;72.98
72548;BME280;60570;50.848;6.776;2024-02-14T03:26:32;100539.09;;;10.11;73.29
72548;BME280;60570;50.848;6.776;2024-02-14T03:27:34;100537.75;;;10.17;73.06
72548;BME280;60570;50.848;6.776;2024-02-14T03:28:35;100537.75;;;10.17;72.81
72548;BME280;60570;50.848;6.776;2024-02-14T03:29:36;100540.06;;;10.15;72.76
72548;BME280;60570;50.848;6.776;2024-02-14T03:30:39;100546.63;;;10.10;72.94
72548;BME280;60570;50.848;6.776;2024-02-14T03:31:40;100537.13;;;10.11;73.28
72548;BME280;60570;50.848;6.776;2024-02-14T03:32:44;100541.53;;;10.12;72.99
72548;BME280;60570;50.848;6.776;2024-02-14T03:33:44;100537.75;;;10.17;73.16
72548;BME280;60570;50.848;6.776;2024-02-14T03:34:46;100534.50;;;10.15;72.78
72548;BME280;60570;50.848;6.776;2024-02-14T03:35:47;100540.72;;;10.12;73.22
72548;BME280;60570;50.848;6.776;2024-02-14T03:36:49;100543.50;;;10.12;73.09
72548;BME280;60570;50.848;6.776;2024-02-14T03:37:49;100546.41;;;10.15;72.98
72548;BME280;60570;50.848;6.776;2024-02-14T03:38:53;100537.13;;;10.11;73.29
72548;BME280;60570;50.848;6.776;2024-02-14T03:39:55;100542.03;;;10.14;72.97
72548;BME280;60570;50.848;6.776;2024-02-14T03:40:57;100536.47;;;10.14;73.27
72548;BME280;60570;50.848;6.776;2024-02-14T03:41:57;100540.38;;;10.13;73.13
72548;BME280;60570;50.848;6.776;2024-02-14T03:43:03;100539.56;;;10.13;73.25
72548;BME280;60570;50.848;6.776;2024-02-14T03:44:04;100540.06;;;10.06;73.01
72548;BME280;60570;50.848;6.776;2024-02-14T03:45:09;100536.94;;;10.08;73.28
72548;BME280;60570;50.848;6.776;2024-02-14T03:46:10;100537.59;;;10.13;73.38
72548;BME280;60570;50.848;6.776;2024-02-14T03:47:13;100539.06;;;10.19;73.13
72548;BME280;60570;50.848;6.776;2024-02-14T03:48:14;100544.97;;;10.18;72.62
72548;BME280;60570;50.848;6.776;2024-02-14T03:49:16;100546.91;;;10.17;72.96
72548;BME280;60570;50.848;6.776;2024-02-14T03:50:17;100536.47;;;10.14;72.97
72548;BME280;60570;50.848;6.776;2024-02-14T03:51:18;100538.09;;;10.15;73.15
72548;BME280;60570;50.848;6.776;2024-02-14T03:52:20;100541.34;;;10.17;73.27
72548;BME280;60570;50.848;6.776;2024-02-14T03:53:23;100541.69;;;10.16;73.04
72548;BME280;60570;50.848;6.776;2024-02-14T03:54:23;100536.78;;;10.21;73.30
72548;BME280;60570;50.848;6.776;2024-02-14T03:55:26;100540.50;;;10.25;72.91
72548;BME280;60570;50.848;6.776;2024-02-14T03:56:27;100533.63;;;10.31;72.75
72548;BME280;60570;50.848;6.776;2024-02-14T03:57:30;100535.94;;;10.29;72.81
72548;BME280;60570;50.848;6.776;2024-02-14T03:58:31;100539.03;;;10.28;72.71
72548;BME280;60570;50.848;6.776;2024-02-14T03:59:36;100540.50;;;10.25;72.98
72548;BME280;60570;50.848;6.776;2024-02-14T04:00:36;100537.41;;;10.27;72.99
72548;BME280;60570;50.848;6.776;2024-02-14T04:01:38;100543.91;;;10.31;72.83
72548;BME280;60570;50.848;6.776;2024-02-14T04:02:44;100552.25;;;10.31;72.92
72548;BME280;60570;50.848;6.776;2024-02-14T04:03:46;100547.19;;;10.33;72.52
72548;BME280;60570;50.848;6.776;2024-02-14T04:04:48;100546.34;;;10.32;72.56
72548;BME280;60570;50.848;6.776;2024-02-14T04:05:49;100549.31;;;10.27;72.79
72548;BME280;60570;50.848;6.776;2024-02-14T04:06:50;100548.50;;;10.27;72.84
72548;BME280;60570;50.848;6.776;2024-02-14T04:07:52;100546.22;;;10.29;73.00
72548;BME280;60570;50.848;6.776;2024-02-14T04:08:54;100547.38;;;10.28;72.93
72548;BME280;60570;50.848;6.776;2024-02-14T04:09:56;100552.59;;;10.29;72.64
72548;BME280;60570;50.848;6.776;2024-02-14T04:10:59;100546.53;;;10.27;72.99
72548;BME280;60570;50.848;6.776;2024-02-14T04:12:00;100542.47;;;10.25;72.95
72548;BME280;60570;50.848;6.776;2024-02-14T04:13:03;100546.22;;;10.20;73.22
72548;BME280;60570;50.848;6.776;2024-02-14T04:14:04;100546.56;;;10.19;73.25
72548;BME280;60570;50.848;6.776;2024-02-14T04:15:06;100552.44;;;10.26;73.24
72548;BME280;60570;50.848;6.776;2024-02-14T04:16:09;100548.34;;;10.23;73.25
72548;BME280;60570;50.848;6.776;2024-02-14T04:17:09;100554.41;;;10.25;73.46
72548;BME280;60570;50.848;6.776;2024-02-14T04:18:13;100550.44;;;10.26;73.16
72548;BME280;60570;50.848;6.776;2024-02-14T04:19:14;100554.88;;;10.27;73.30
72548;BME280;60570;50.848;6.776;2024-02-14T04:20:17;100554.41;;;10.25;73.34
72548;BME280;60570;50.848;6.776;2024-02-14T04:21:18;100561.91;;;10.25;73.31
72548;BME280;60570;50.848;6.776;2024-02-14T04:22:20;100563.72;;;10.21;73.71
72548;BME280;60570;50.848;6.776;2024-02-14T04:23:21;100555.72;;;10.19;73.45
72548;BME280;60570;50.848;6.776;2024-02-14T04:24:25;100569.59;;;10.19;73.31
72548;BME280;60570;50.848;6.776;2024-02-14T04:25:25;100566.97;;;10.23;73.27
72548;BME280;60570;50.848;6.776;2024-02-14T04:26:27;100567.94;;;10.18;73.42
72548;BME280;60570;50.848;6.776;2024-02-14T04:27:29;100573.34;;;10.15;73.45
72548;BME280;60570;50.848;6.776;2024-02-14T04:28:30;100575.00;;;10.16;73.66
72548;BME280;60570;50.848;6.776;2024-02-14T04:29:32;100566.53;;;10.12;73.58
72548;BME280;60570;50.848;6.776;2024-02-14T04:30:33;100563.06;;;10.15;73.55
72548;BME280;60570;50.848;6.776;2024-02-14T04:31:36;100569.13;;;10.17;73.80
72548;BME280;60570;50.848;6.776;2024-02-14T04:32:37;100576.28;;;10.18;73.39
72548;BME280;60570;50.848;6.776;2024-02-14T04:33:39;100579.22;;;10.22;73.42
72548;BME280;60570;50.848;6.776;2024-02-14T04:34:40;100570.56;;;10.23;73.26
72548;BME280;60570;50.848;6.776;2024-02-14T04:35:43;100575.28;;;10.23;73.38
72548;BME280;60570;50.848;6.776;2024-02-14T04:36:44;100570.22;;;10.25;73.10
72548;BME280;60570;50.848;6.776;2024-02-14T04:37:46;100571.69;;;10.22;73.43
72548;BME280;60570;50.848;6.776;2024-02-14T04:38:48;100581.81;;;10.27;73.25
72548;BME280;60570;50.848;6.776;2024-02-14T04:39:50;100573.34;;;10.23;73.36
72548;BME280;60570;50.848;6.776;2024-02-14T04:40:51;100565.50;;;10.25;73.50
72548;BME280;60570;50.848;6.776;2024-02-14T04:41:54;100568.41;;;10.29;73.12
72548;BME280;60570;50.848;6.776;2024-02-14T04:42:56;100570.22;;;10.25;73.48
72548;BME280;60570;50.848;6.776;2024-02-14T04:43:58;100562.88;;;10.29;73.05
72548;BME280;60570;50.848;6.776;2024-02-14T04:44:59;100565.78;;;10.32;73.09
72548;BME280;60570;50.848;6.776;2024-02-14T04:46:01;100558.97;;;10.30;72.97
72548;BME280;60570;50.848;6.776;2024-02-14T04:47:02;100566.13;;;10.31;73.47
72548;BME280;60570;50.848;6.776;2024-02-14T04:48:04;100568.63;;;10.24;73.27
72548;BME280;60570;50.848;6.776;2024-02-14T04:49:06;100573.34;;;10.23;73.32
72548;BME280;60570;50.848;6.776;2024-02-14T04:50:08;100573.50;;;10.18;73.61
72548;BME280;60570;50.848;6.776;2024-02-14T04:51:09;100573.69;;;10.22;73.32
72548;BME280;60570;50.848;6.776;2024-02-14T04:52:10;100575.28;;;10.23;73.65
72548;BME280;60570;50.848;6.776;2024-02-14T04:53:12;100574.47;;;10.22;73.53
72548;BME280;60570;50.848;6.776;2024-02-14T04:54:12;100573.00;;;10.25;73.59
72548;BME280;60570;50.848;6.776;2024-02-14T04:55:16;100570.84;;;10.30;73.06
72548;BME280;60570;50.848;6.776;2024-02-14T04:56:17;100573.00;;;10.25;73.37
72548;BME280;60570;50.848;6.776;2024-02-14T04:57:20;100568.75;;;10.27;73.43
72548;BME280;60570;50.848;6.776;2024-02-14T04:58:21;100570.56;;;10.23;73.50
72548;BME280;60570;50.848;6.776;2024-02-14T04:59:22;100569.41;;;10.24;73.38
72548;BME280;60570;50.848;6.776;2024-02-14T05:00:23;100573.34;;;10.23;73.53
72548;BME280;60570;50.848;6.776;2024-02-14T05:01:25;100563.38;;;10.22;73.44
72548;BME280;60570;50.848;6.776;2024-02-14T05:02:25;100567.94;;;10.27;73.20
72548;BME280;60570;50.848;6.776;2024-02-14T05:03:26;100564.03;;;10.28;73.13
72548;BME280;60570;50.848;6.776;2024-02-14T05:04:28;100565.31;;;10.30;73.56
72548;BME280;60570;50.848;6.776;2024-02-14T05:05:30;100575.44;;;10.26;73.51
72548;BME280;60570;50.848;6.776;2024-02-14T05:06:34;100570.09;;;10.21;73.61
72548;BME280;60570;50.848;6.776;2024-02-14T05:07:34;100574.97;;;10.24;73.56
72548;BME280;60570;50.848;6.776;2024-02-14T05:08:36;100567.13;;;10.26;73.33
72548;BME280;60570;50.848;6.776;2024-02-14T05:09:37;100565.34;;;10.22;73.63
72548;BME280;60570;50.848;6.776;2024-02-14T05:10:39;100567.16;;;10.18;73.86
72548;BME280;60570;50.848;6.776;2024-02-14T05:11:40;100568.78;;;10.19;73.92
72548;BME280;60570;50.848;6.776;2024-02-14T05:12:43;100569.59;;;10.19;73.61
72548;BME280;60570;50.848;6.776;2024-02-14T05:13:44;100579.72;;;10.24;73.58
72548;BME280;60570;50.848;6.776;2024-02-14T05:14:47;100576.13;;;10.23;73.50
72548;BME280;60570;50.848;6.776;2024-02-14T05:15:49;100572.03;;;10.29;73.49
72548;BME280;60570;50.848;6.776;2024-02-14T05:16:51;100572.03;;;10.29;73.21
72548;BME280;60570;50.848;6.776;2024-02-14T05:17:52;100573.81;;;10.25;73.35
72548;BME280;60570;50.848;6.776;2024-02-14T05:18:53;100568.13;;;10.22;73.62
72548;BME280;60570;50.848;6.776;2024-02-14T05:19:55;100574.47;;;10.22;73.39
72548;BME280;60570;50.848;6.776;2024-02-14T05:20:56;100574.31;;;10.19;73.67
72548;BME280;60570;50.848;6.776;2024-02-14T05:21:58;100575.63;;;10.21;73.75
72548;BME280;60570;50.848;6.776;2024-02-14T05:22:59;100584.09;;;10.25;73.49
72548;BME280;60570;50.848;6.776;2024-02-14T05:24:01;100581.47;;;10.28;73.30